| time (UTC) | temp F | wind direction | speed MPH | gust MPH | rain 1hr in | rain 24hr in | rain mn in | humidity % | barometer mb |
| 20260508045750 | 100 | 0.0 | 0.0 | 0.00 | 0.00 | 0.00 | 20 | 999.2 | |
| 20260508044750 | 101 | 0.0 | 0.0 | 0.00 | 0.00 | 0.00 | 20 | 999.2 | |
| 20260508043750 | 98 | 0.0 | 0.0 | 0.00 | 0.00 | 0.00 | 21 | 999.6 | |
| 20260508042750 | 95 | 0.0 | 0.0 | 0.00 | 0.00 | 0.00 | 23 | 1000.0 | |
| 20260508041750 | 102 | 0.0 | 0.0 | 0.00 | 0.00 | 0.00 | 20 | 999.1 | |
| 20260508040750 | 100 | 0.0 | 0.0 | 0.00 | 0.00 | 0.00 | 21 | 999.3 | |
| 20260508035750 | 96 | 0.0 | 0.0 | 0.00 | 0.00 | 0.00 | 23 | 999.9 | |
| 20260508034750 | 96 | 0.0 | 0.0 | 0.00 | 0.00 | 0.00 | 22 | 999.9 | |
| 20260508033750 | 104 | 0.0 | 0.0 | 0.00 | 0.00 | 0.00 | 19 | 998.9 | |
| 20260508032750 | 94 | 0.0 | 0.0 | 0.00 | 0.00 | 0.00 | 23 | 1000.5 | |
| 20260508031750 | 106 | 0.0 | 0.0 | 0.00 | 0.00 | 0.00 | 18 | 998.7 | |
| 20260508030750 | 93 | 0.0 | 0.0 | 0.00 | 0.00 | 0.00 | 24 | 1000.4 | |
| 20260508025750 | 96 | 0.0 | 0.0 | 0.00 | 0.00 | 0.00 | 23 | 999.9 | |
| 20260508024750 | 94 | 0.0 | 0.0 | 0.00 | 0.00 | 0.00 | 24 | 1000.1 | |
| 20260508023750 | 93 | 0.0 | 0.0 | 0.00 | 0.00 | 0.00 | 25 | 1000.5 | |
| 20260508022750 | 92 | 0.0 | 0.0 | 0.00 | 0.00 | 0.00 | 25 | 1000.8 | |
| 20260508021750 | 95 | 0.0 | 0.0 | 0.00 | 0.00 | 0.00 | 23 | 1000.4 | |
| 20260508020750 | 107 | 0.0 | 0.0 | 0.00 | 0.00 | 0.00 | 17 | 998.9 | |
| 20260508015750 | 104 | 0.0 | 0.0 | 0.00 | 0.00 | 0.00 | 19 | 999.6 | |
| 20260508014750 | 104 | 0.0 | 0.0 | 0.00 | 0.00 | 0.00 | 18 | 999.6 | |
| 20260508013750 | 103 | 0.0 | 0.0 | 0.00 | 0.00 | 0.00 | 19 | 999.7 | |
| 20260508012750 | 100 | 0.0 | 0.0 | 0.00 | 0.00 | 0.00 | 21 | 1000.3 | |
| 20260508011750 | 99 | 0.0 | 0.0 | 0.00 | 0.00 | 0.00 | 21 | 1000.4 | |
| 20260508010750 | 99 | 0.0 | 0.0 | 0.00 | 0.00 | 0.00 | 21 | 1000.6 | |
| 20260508005750 | 97 | 0.0 | 0.0 | 0.00 | 0.00 | 0.00 | 21 | 1001.0 | |
| 20260508004750 | 102 | 0.0 | 0.0 | 0.00 | 0.00 | 0.00 | 18 | 1000.3 | |
| 20260508003750 | 100 | 0.0 | 0.0 | 0.00 | 0.00 | 0.00 | 20 | 1000.7 | |
| 20260508002750 | 103 | 0.0 | 0.0 | 0.00 | 0.00 | 0.00 | 19 | 1000.4 | |
| 20260508001750 | 112 | 0.0 | 0.0 | 0.00 | 0.00 | 0.00 | 16 | 999.2 | |
| 20260508000750 | 114 | 0.0 | 0.0 | 0.00 | 0.00 | 0.00 | 15 | 999.1 | |
| 20260507235750 | 114 | 0.0 | 0.0 | 0.00 | 0.00 | 0.00 | 14 | 998.9 | |
| 20260507234750 | 116 | 0.0 | 0.0 | 0.00 | 0.00 | 0.00 | 14 | 998.7 | |
| 20260507233750 | 110 | 0.0 | 0.0 | 0.00 | 0.00 | 0.00 | 15 | 999.5 | |
| 20260507232750 | 114 | 0.0 | 0.0 | 0.00 | 0.00 | 0.00 | 14 | 999.2 | |
| 20260507231751 | 108 | 0.0 | 0.0 | 0.00 | 0.00 | 0.00 | 17 | 999.8 | |
| 20260507230750 | 114 | 0.0 | 0.0 | 0.00 | 0.00 | 0.00 | 14 | 999.0 | |
| 20260507225750 | 116 | 0.0 | 0.0 | 0.00 | 0.00 | 0.00 | 14 | 998.8 | |
| 20260507224750 | 114 | 0.0 | 0.0 | 0.00 | 0.00 | 0.00 | 14 | 999.1 | |
| 20260507223750 | 113 | 0.0 | 0.0 | 0.00 | 0.00 | 0.00 | 14 | 999.3 | |
| 20260507222750 | 114 | 0.0 | 0.0 | 0.00 | 0.00 | 0.00 | 15 | 999.2 | |
| 20260507221750 | 114 | 0.0 | 0.0 | 0.00 | 0.00 | 0.00 | 15 | 999.3 | |
| 20260507220750 | 112 | 0.0 | 0.0 | 0.00 | 0.00 | 0.00 | 15 | 999.4 | |
| 20260507215750 | 111 | 0.0 | 0.0 | 0.00 | 0.00 | 0.00 | 15 | 999.6 | |
| 20260507214750 | 113 | 0.0 | 0.0 | 0.00 | 0.00 | 0.00 | 14 | 999.3 | |
| 20260507213750 | 118 | 0.0 | 0.0 | 0.00 | 0.00 | 0.00 | 13 | 998.7 | |
| 20260507212750 | 113 | 0.0 | 0.0 | 0.00 | 0.00 | 0.00 | 15 | 999.0 | |
| 20260507211750 | 93 | 0.0 | 0.0 | 0.00 | 0.00 | 0.00 | 24 | 1002.0 | |
| 20260507210750 | 108 | 0.0 | 0.0 | 0.00 | 0.00 | 0.00 | 16 | 999.4 | |
| 20260507205750 | 109 | 0.0 | 0.0 | 0.00 | 0.00 | 0.00 | 17 | 999.1 | |
| 20260507204750 | 106 | 0.0 | 0.0 | 0.00 | 0.00 | 0.00 | 17 | 999.3 | |
| 20260507203750 | 114 | 0.0 | 0.0 | 0.00 | 0.00 | 0.00 | 15 | 998.3 | |
| 20260507202750 | 102 | 0.0 | 0.0 | 0.00 | 0.00 | 0.00 | 19 | 999.7 | |
| 20260507201750 | 108 | 0.0 | 0.0 | 0.00 | 0.00 | 0.00 | 17 | 998.7 | |
| 20260507200749 | 106 | 0.0 | 0.0 | 0.00 | 0.00 | 0.00 | 17 | 999.0 | |
| 20260507195750 | 102 | 0.0 | 0.0 | 0.00 | 0.00 | 0.00 | 18 | 999.4 | |
| 20260507194750 | 107 | 0.0 | 0.0 | 0.00 | 0.00 | 0.00 | 16 | 998.4 | |
| 20260507193750 | 104 | 0.0 | 0.0 | 0.00 | 0.00 | 0.00 | 17 | 998.8 | |
| 20260507192750 | 104 | 0.0 | 0.0 | 0.00 | 0.00 | 0.00 | 17 | 998.6 | |
| 20260507191750 | 110 | 0.0 | 0.0 | 0.00 | 0.00 | 0.00 | 15 | 997.8 | |
| 20260507190750 | 100 | 0.0 | 0.0 | 0.00 | 0.00 | 0.00 | 18 | 999.2 | |
| 20260507185749 | 107 | 0.0 | 0.0 | 0.00 | 0.00 | 0.00 | 15 | 998.0 | |
| 20260507184750 | 105 | 0.0 | 0.0 | 0.00 | 0.00 | 0.00 | 16 | 998.2 | |
| 20260507183750 | 104 | 0.0 | 0.0 | 0.00 | 0.00 | 0.00 | 16 | 998.3 | |
| 20260507182749 | 120 | 0.0 | 0.0 | 0.00 | 0.00 | 0.00 | 10 | 995.9 | |
| 20260507181750 | 118 | 0.0 | 0.0 | 0.00 | 0.00 | 0.00 | 11 | 996.2 | |
| 20260507180750 | 116 | 0.0 | 0.0 | 0.00 | 0.00 | 0.00 | 12 | 996.5 | |
| 20260507175750 | 118 | 0.0 | 0.0 | 0.00 | 0.00 | 0.00 | 11 | 996.2 | |
| 20260507174749 | 116 | 0.0 | 0.0 | 0.00 | 0.00 | 0.00 | 12 | 996.5 | |
| 20260507173749 | 116 | 0.0 | 0.0 | 0.00 | 0.00 | 0.00 | 12 | 996.5 | |
| 20260507172750 | 112 | 0.0 | 0.0 | 0.00 | 0.00 | 0.00 | 13 | 997.1 | |
| 20260507171750 | 110 | 0.0 | 0.0 | 0.00 | 0.00 | 0.00 | 13 | 997.2 | |
| 20260507170749 | 112 | 0.0 | 0.0 | 0.00 | 0.00 | 0.00 | 13 | 997.0 | |
| 20260507165749 | 115 | 0.0 | 0.0 | 0.00 | 0.00 | 0.00 | 11 | 996.5 | |
| 20260507164749 | 116 | 0.0 | 0.0 | 0.00 | 0.00 | 0.00 | 11 | 996.3 | |
| 20260507163749 | 113 | 0.0 | 0.0 | 0.00 | 0.00 | 0.00 | 12 | 996.5 | |
| 20260507162749 | 111 | 0.0 | 0.0 | 0.00 | 0.00 | 0.00 | 12 | 996.7 | |
| 20260507161749 | 109 | 0.0 | 0.0 | 0.00 | 0.00 | 0.00 | 14 | 997.1 | |
| 20260507160749 | 118 | 0.0 | 0.0 | 0.00 | 0.00 | 0.00 | 10 | 995.8 | |
| 20260507155749 | 114 | 0.0 | 0.0 | 0.00 | 0.00 | 0.00 | 12 | 996.3 | |
| 20260507154750 | 116 | 0.0 | 0.0 | 0.00 | 0.00 | 0.00 | 12 | 996.1 | |
| 20260507153749 | 119 | 0.0 | 0.0 | 0.00 | 0.00 | 0.00 | 10 | 995.7 | |
| 20260507152750 | 121 | 0.0 | 0.0 | 0.00 | 0.00 | 0.00 | 9 | 995.2 | |
| 20260507151749 | 125 | 0.0 | 0.0 | 0.00 | 0.00 | 0.00 | 8 | 994.8 | |
| 20260507150749 | 121 | 0.0 | 0.0 | 0.00 | 0.00 | 0.00 | 9 | 995.4 | |
| 20260507145749 | 112 | 0.0 | 0.0 | 0.00 | 0.00 | 0.00 | 12 | 996.8 | |
| 20260507144749 | 114 | 0.0 | 0.0 | 0.00 | 0.00 | 0.00 | 13 | 996.7 | |
| 20260507143749 | 114 | 0.0 | 0.0 | 0.00 | 0.00 | 0.00 | 11 | 996.4 | |
| 20260507142749 | 119 | 0.0 | 0.0 | 0.00 | 0.00 | 0.00 | 9 | 995.8 | |
| 20260507141749 | 110 | 0.0 | 0.0 | 0.00 | 0.00 | 0.00 | 12 | 997.0 | |
| 20260507140750 | 117 | 0.0 | 0.0 | 0.00 | 0.00 | 0.00 | 10 | 996.2 | |
| 20260507135749 | 118 | 0.0 | 0.0 | 0.00 | 0.00 | 0.00 | 10 | 996.4 | |
| 20260507134749 | 114 | 0.0 | 0.0 | 0.00 | 0.00 | 0.00 | 11 | 996.9 | |
| 20260507133749 | 114 | 0.0 | 0.0 | 0.00 | 0.00 | 0.00 | 10 | 997.0 | |
| 20260507132750 | 121 | 0.0 | 0.0 | 0.00 | 0.00 | 0.00 | 9 | 996.2 | |
| 20260507131749 | 119 | 0.0 | 0.0 | 0.00 | 0.00 | 0.00 | 9 | 996.5 | |
| 20260507130749 | 110 | 0.0 | 0.0 | 0.00 | 0.00 | 0.00 | 12 | 997.8 | |
| 20260507125750 | 115 | 0.0 | 0.0 | 0.00 | 0.00 | 0.00 | 11 | 997.3 | |
| 20260507124749 | 115 | 0.0 | 0.0 | 0.00 | 0.00 | 0.00 | 11 | 997.4 | |
| 20260507123749 | 115 | 0.0 | 0.0 | 0.00 | 0.00 | 0.00 | 11 | 997.5 | |
| 20260507122749 | 115 | 0.0 | 0.0 | 0.00 | 0.00 | 0.00 | 11 | 997.6 | |
| 20260507121749 | 112 | 0.0 | 0.0 | 0.00 | 0.00 | 0.00 | 13 | 998.3 | |
| 20260507120749 | 116 | 0.0 | 0.0 | 0.00 | 0.00 | 0.00 | 12 | 997.8 | |
| 20260507115750 | 108 | 0.0 | 0.0 | 0.00 | 0.00 | 0.00 | 14 | 999.0 | |
| 20260507114749 | 115 | 0.0 | 0.0 | 0.00 | 0.00 | 0.00 | 11 | 998.2 | |
| 20260507113750 | 105 | 0.0 | 0.0 | 0.00 | 0.00 | 0.00 | 15 | 999.9 | |
| 20260507112749 | 111 | 0.0 | 0.0 | 0.00 | 0.00 | 0.00 | 13 | 998.9 | |
| 20260507111749 | 115 | 0.0 | 0.0 | 0.00 | 0.00 | 0.00 | 12 | 998.5 | |
| 20260507110750 | 111 | 0.0 | 0.0 | 0.00 | 0.00 | 0.00 | 13 | 999.2 | |
| 20260507105749 | 103 | 0.0 | 0.0 | 0.00 | 0.00 | 0.00 | 16 | 1000.2 | |
| 20260507104749 | 108 | 0.0 | 0.0 | 0.00 | 0.00 | 0.00 | 14 | 999.9 | |
| 20260507103749 | 117 | 0.0 | 0.0 | 0.00 | 0.00 | 0.00 | 12 | 998.7 | |
| 20260507102749 | 116 | 0.0 | 0.0 | 0.00 | 0.00 | 0.00 | 12 | 998.8 | |
| 20260507101749 | 101 | 0.0 | 0.0 | 0.00 | 0.00 | 0.00 | 17 | 1001.0 | |
| 20260507100749 | 121 | 0.0 | 0.0 | 0.00 | 0.00 | 0.00 | 11 | 998.3 | |
| 20260507095749 | 107 | 0.0 | 0.0 | 0.00 | 0.00 | 0.00 | 16 | 1000.3 | |
| 20260507094749 | 110 | 0.0 | 0.0 | 0.00 | 0.00 | 0.00 | 14 | 999.9 | |
| 20260507093749 | 102 | 0.0 | 0.0 | 0.00 | 0.00 | 0.00 | 17 | 1001.1 | |
| 20260507092749 | 101 | 0.0 | 0.0 | 0.00 | 0.00 | 0.00 | 18 | 1001.2 | |
| 20260507091749 | 107 | 0.0 | 0.0 | 0.00 | 0.00 | 0.00 | 16 | 1000.3 | |
| 20260507090749 | 106 | 0.0 | 0.0 | 0.00 | 0.00 | 0.00 | 16 | 1000.6 | |
| 20260507085749 | 101 | 0.0 | 0.0 | 0.00 | 0.00 | 0.00 | 18 | 1001.2 | |
| 20260507084749 | 114 | 0.0 | 0.0 | 0.00 | 0.00 | 0.00 | 13 | 999.6 | |
| 20260507083749 | 108 | 0.0 | 0.0 | 0.00 | 0.00 | 0.00 | 15 | 1000.3 | |
| 20260507082749 | 111 | 0.0 | 0.0 | 0.00 | 0.00 | 0.00 | 14 | 999.8 | |
| 20260507081749 | 104 | 0.0 | 0.0 | 0.00 | 0.00 | 0.00 | 17 | 1000.9 | |
| 20260507080749 | 103 | 0.0 | 0.0 | 0.00 | 0.00 | 0.00 | 17 | 1001.1 | |
| 20260507075749 | 97 | 0.0 | 0.0 | 0.00 | 0.00 | 0.00 | 19 | 1002.0 | |
| 20260507074749 | 105 | 0.0 | 0.0 | 0.00 | 0.00 | 0.00 | 16 | 1001.0 | |
| 20260507073749 | 103 | 0.0 | 0.0 | 0.00 | 0.00 | 0.00 | 17 | 1001.2 | |
| 20260507072749 | 104 | 0.0 | 0.0 | 0.00 | 0.00 | 0.00 | 16 | 1001.1 | |
| 20260507071749 | 101 | 0.0 | 0.0 | 0.00 | 0.00 | 0.00 | 18 | 1001.4 | |
| 20260507070749 | 104 | 0.0 | 0.0 | 0.00 | 0.00 | 0.00 | 16 | 1000.9 | |
| 20260507065749 | 103 | 0.0 | 0.0 | 0.00 | 0.00 | 0.00 | 17 | 1001.1 | |
| 20260507064749 | 104 | 0.0 | 0.0 | 0.00 | 0.00 | 0.00 | 16 | 1001.0 | |
| 20260507063749 | 109 | 0.0 | 0.0 | 0.00 | 0.00 | 0.00 | 14 | 1000.3 | |
| 20260507062749 | 102 | 0.0 | 0.0 | 0.00 | 0.00 | 0.00 | 17 | 1001.3 | |
| 20260507061749 | 94 | 0.0 | 0.0 | 0.00 | 0.00 | 0.00 | 20 | 1002.4 | |
| 20260507060749 | 103 | 0.0 | 0.0 | 0.00 | 0.00 | 0.00 | 17 | 1001.1 | |
| 20260507055749 | 103 | 0.0 | 0.0 | 0.00 | 0.00 | 0.00 | 17 | 1001.2 | |
| 20260507054749 | 103 | 0.0 | 0.0 | 0.00 | 0.00 | 0.00 | 17 | 1001.0 | |
| 20260507053749 | 104 | 0.0 | 0.0 | 0.00 | 0.00 | 0.00 | 16 | 1000.9 | |
| 20260507052749 | 104 | 0.0 | 0.0 | 0.00 | 0.00 | 0.00 | 16 | 1000.8 | |
| 20260507051749 | 92 | 0.0 | 0.0 | 0.00 | 0.00 | 0.00 | 22 | 1002.4 | |
| 20260507050750 | 91 | 0.0 | 0.0 | 0.00 | 0.00 | 0.00 | 22 | 1002.5 |